Tiempo atmosférico en la estación meteorológica de Aranda De Duero, Burgos (790 m.)



Fecha
DESCASC
Temp. máxima en grados centígrados (hora)
DESCASC
Temp. mínima en grados centígrados (hora)
DESCASC
Temp. media en grados centígrados
DESCASC
Racha de viento máxima en m/sg (hora)
DESCASC
Velocidad máxima media en intervalos de 10 minutos(hora)
DESCASC
Precipitaciones diarias en mm
DESCASC
Precipitaciones de 00:00 a 06:00 en mm
DESCASC
Precipitaciones de 06:00 a 12:00 en mm
DESCASC
Precipitaciones de 12:00 a 18:00 en mm
DESCASC
Precipitaciones de 18:00 a 24:00 en mm
DESCASC
18-02-2018 10.9 (14:20) -3 (07:40) 3.9 11.39 (16:40) 5.83 (15:20) 0 0 0 0 0
17-02-2018 11 (14:40) 1.6 (23:20) 6.3 10.83 (17:10) 5.83 (17:10) 0 0 0 0 0
16-02-2018 15.6 (15:40) 7.2 (21:10) 11.4 6.39 (15:00) 2.5 (16:00) 0 0 0 0 0
15-02-2018 13.6 (15:40) 7.6 (00:00) 10.6 8.33 (15:30) 4.72 (13:00) 0 0 0 0 0
14-02-2018 8.2 (16:20) 5.6 (00:00) 6.9 13.89 (00:10) 6.11 (00:10) 2.4 0 0.2 2.2 0
13-02-2018 5.9 (23:59) -6.1 (-00:0) -0.1 13.89 (13:00) 7.5 (12:40) 5.6 0 0 0.4 5.2
12-02-2018 6 (15:50) -4.4 (-00:0) 0.8 9.17 (12:10) 4.44 (12:10) 0 0 0 0 0
11-02-2018 10.1 (15:20) 1 (00:00) 5.6 9.17 (22:20) 4.72 (12:30) 4 0 0 1 3
10-02-2018 5.9 (17:00) -3 (-00:0) 1.5 8.89 (14:10) 4.17 (14:20) 0 0 0 0 0
09-02-2018 2.6 (17:30) -7.3 (-00:0) -2.4 6.94 (14:50) 3.33 (13:00) 0 0 0 0 0
08-02-2018 3.7 (14:20) -5.7 (-00:0) -1 8.33 (12:20) 4.17 (12:40) 0 0 0 0 0
07-02-2018 3.5 (15:00) -3.8 (-00:0) -0.1 11.39 (15:10) 5.28 (16:20) 0 0 0 0 0
06-02-2018 3.1 (15:30) -2.6 (-00:0) 0.3 15.28 (13:50) 7.22 (14:00) 0 0 0 0 0
05-02-2018 3.3 (13:00) -0.9 (-00:0) 1.2 14.17 (16:30) 5.56 (16:40) 0 0 0 0 0
04-02-2018 4.5 (15:50) 0.1 (00:00) 2.3 10.56 (16:40) 5.28 (13:40) 4.2 4.2 0 0 0
03-02-2018 7.2 (15:00) -3.6 (-00:0) 1.8 12.5 (14:50) 6.11 (14:50) 0.2 0 0 0 0.2
02-02-2018 3.2 (14:50) -3.7 (-00:0) -0.3 10.83 (14:50) 5.28 (14:50) 0 0 0 0 0
01-02-2018 8 (14:30) -3.4 (-00:0) 2.3 12.78 (16:40) 5.56 (16:40) 0 0 0 0 0
31-01-2018 12.3 (16:30) -5.6 (-00:0) 3.4 5 (17:20) 2.5 (15:20) 0 0 0 0 0
30-01-2018 12.1 (17:50) -4.1 (-00:0) 4 6.94 (12:30) 3.61 (12:30) 0 0 0 0 0
29-01-2018 12.4 (16:30) -2.2 (-00:0) 5.1 4.44 (14:50) 2.5 (06:50) 0 0 0 0 0
28-01-2018 11.6 (16:00) -5.7 (-00:0) 3 9.72 (17:40) 5 (15:30) 0 0 0 0 0
27-01-2018 6.5 (16:00) -2.4 (-00:0) 2 13.06 (15:30) 6.11 (12:00) 0 0 0 0 0
26-01-2018 5.4 (14:50) -1.1 (-00:0) 2.2 11.39 (18:40) 4.44 (19:20) 1.2 0 0 1.2 0
25-01-2018 5.7 (17:30) -0.5 (-00:0) 2.6 11.39 (22:20) 4.44 (22:20) 6.8 0 1.2 5.2 0.4
24-01-2018 8.2 (17:00) -0.7 (-00:0) 3.7 5.28 (02:50) 3.33 (02:50) 0 0 0 0 0
23-01-2018 6.4 (17:00) -0.9 (-00:0) 2.8 3.33 (14:10) 2.22 (21:40) 0 0 0 0 0
22-01-2018 9 (14:40) 0.1 (00:00) 4.6 5.83 (02:50) 3.61 (10:50) 0 0 0 0 0

Gráficas

Temp. máximas Temp. mínimas Temp. medias Precipitaciones Rachas de viento máximas Velocidades máximas media en intervalos de 10 minutos

Datos horarios

Fecha y hora oficial Temperatura (ºC) Velocidad del viento (km/h) Dirección del viento Racha (km/h) Dirección de racha Precipitación (mm) Presión (hPa) Tendencia (hPa) Humedad (%)
2018-02-20 23:00:00 4.3 9 Norte 28 Norte 0 927.2 -0.8 76
2018-02-20 22:00:00 5.3 16 Norte 39 Norte 0 927.4 -0.3 71
2018-02-20 21:00:00 5.8 21 Norte 39 Norte 0 927.8 0.1 70
2018-02-20 20:00:00 6.6 13 Norte 34 Norte 0 928 0.3 71
2018-02-20 19:00:00 7.3 10 Norte 39 Norte 0 927.7 -0.1 70
2018-02-20 18:00:00 8 19 Norte 40 Norte 0 927.7 -0.4 66
2018-02-20 17:00:00 8.7 19 Norte 38 Norte 0 927.7 -1.1 59
2018-02-20 16:00:00 9.7 16 Norte 42 Norte 0 927.8 -1.5 50
2018-02-20 15:00:00 9.6 21 Norte 44 Noroeste 0 928.1 -1.5 51
2018-02-20 14:00:00 8.6 18 Norte 40 Nordeste 0 928.8 -0.7 59
2018-02-20 13:00:00 8.4 20 Norte 39 Noroeste 0 929.3 0.1 60
2018-02-20 12:00:00 8 14 Norte 31 Noroeste 0 929.6 0.6 65
2018-02-20 11:00:00 7.3 14 Norte 39 Norte 0 929.5 0.6 67
2018-02-20 10:00:00 6.4 15 Norte 46 Nordeste 0 929.2 0.7 71
2018-02-20 09:00:00 5.6 14 Norte 27 Norte 0 929 0.6 75
2018-02-20 08:00:00 5.2 6 Noroeste 23 Noroeste 0 928.9 0.3 77
2018-02-20 07:00:00 5.6 13 Noroeste 28 Noroeste 0 928.5 0 76
2018-02-20 06:00:00 5.3 4 Noroeste 12 Oeste 0 928.4 -0.4 78
2018-02-20 05:00:00 5.3 4 Sudoeste 23 Oeste 0 928.6 -0.3 79
2018-02-20 04:00:00 5.7 6 Oeste 18 Noroeste 0 928.5 -0.1 77
2018-02-20 03:00:00 5.5 6 Noroeste 17 Noroeste 0 928.8 0.3 78
2018-02-20 02:00:00 5.3 6 Sudoeste 13 Oeste 0 928.9 0.2 78
2018-02-20 01:00:00 5.4 4 Sudoeste 26 Noroeste 0 928.6 -0.2 76
2018-02-20 00:00:00 6.2 14 Noroeste 30 Noroeste 0 928.5 -0.2 73
2018-02-19 23:00:00 6.7 12 Noroeste 26 Noroeste 0 928.7 0.1 71
2018-02-19 22:00:00 7.3 9 Noroeste 18 Noroeste 0 928.8 0.5 72
2018-02-19 21:00:00 7.7 6 Noroeste 15 Noroeste 0 928.7 0.5 70
2018-02-19 20:00:00 8.2 7 Noroeste 21 Noroeste 0 928.6 0.4 68
2018-02-19 19:00:00 8.8 8 Noroeste 16 Noroeste 0 928.3 0 65
2018-02-19 18:00:00 9.1 11 Noroeste 22 Noroeste 0 928.2 -0.3 63
2018-02-19 17:00:00 9.1 11 Norte 24 Norte 0 928.2 -0.7 68
2018-02-19 16:00:00 9.2 10 Noroeste 24 Noroeste 0 928.3 -0.9 63
2018-02-19 15:00:00 9.6 12 Noroeste 31 Norte 0 928.5 -1 61
2018-02-19 14:00:00 9.1 14 Noroeste 30 Noroeste 0 928.9 -0.5 62
2018-02-19 13:00:00 9.7 8 Noroeste 22 Noroeste 0 929.2 -0.3 65
2018-02-19 12:00:00 7.6 6 Oeste 16 Oeste 0 929.5 0 69
2018-02-19 11:00:00 7.4 6 Oeste 15 Oeste 0 929.4 0.1 71
2018-02-19 10:00:00 5.9 3 Oeste 11 Noroeste 0 929.5 0.5 76
2018-02-19 09:00:00 5.1 3 Sudoeste 8 Noroeste 0 929.5 0.6 79
2018-02-19 08:00:00 4.7 4 Oeste 13 Noroeste 0 929.3 0.5 79
2018-02-19 07:00:00 4.5 3 Oeste 11 Noroeste 0 929 -0.2 77
2018-02-19 06:00:00 4.4 3 Oeste 10 Noroeste 0 928.9 -0.7 78
2018-02-19 05:00:00 4.6 5 Noroeste 13 Noroeste 0 928.8 -1.2 77
2018-02-19 04:00:00 4.6 5 Oeste 9 Oeste 0 929.2 -1.2 80
2018-02-19 03:00:00 4.8 4 Sudoeste 8 Oeste 0 929.6 -1 80
2018-02-19 02:00:00 5.2 4 Sudoeste 14 Noroeste 0 930 -1 77
2018-02-19 01:00:00 5.6 7 Noroeste 11 Noroeste 0 930.4 -0.9 74
2018-02-19 00:00:00 5.9 5 Noroeste 15 Noroeste 0 930.6 -0.7 72
2018-02-18 23:00:00 6.1 3 Noroeste 13 Norte 0 931 -0.4 69
2018-02-18 22:00:00 6.4 6 Norte 17 Noroeste 0 931.3 0.2 68
2018-02-18 21:00:00 6.7 3 Sudoeste 13 Noroeste 0 931.3 0.6 69
2018-02-18 20:00:00 7.3 8 Norte 26 Nordeste 0 931.4 0.8 63
2018-02-18 19:00:00 8 8 Norte 38 Norte 0 931.1 0.4 58
2018-02-18 18:00:00 9.1 20 Norte 41 Norte 0 930.7 -0.3 53
2018-02-18 17:00:00 10 19 Norte 41 Norte 0 930.6 -1 53
2018-02-18 16:00:00 10 20 Norte 38 Norte 0 930.7 -1.9 54
2018-02-18 15:00:00 10.3 19 Norte 38 Norte 0 931 -2.2 54
2018-02-18 14:00:00 10.3 14 Norte 27 Norte 0 931.6 -1.8 50
2018-02-18 13:00:00 8.9 9 Norte 19 Noroeste 0 932.6 -0.8 53
2018-02-18 12:00:00 6.6 7 Noroeste 16 Oeste 0 933.2 -0.1 60
2018-02-18 11:00:00 4.9 7 Sudoeste 12 Oeste 0 933.4 0.1 65
2018-02-18 10:00:00 2.5 5 Sudoeste 9 Oeste 0 933.4 -0.1 76
2018-02-18 09:00:00 -2.3 3 Sudoeste 10 Sudoeste 0 933.3 -0.2 87
2018-02-18 08:00:00 -3 4 Sudoeste 8 Sudoeste 0 933.3 -0.4 86
2018-02-18 07:00:00 -2.3 4 Sudoeste 9 Sudoeste 0 933.5 -0.7 85
2018-02-18 06:00:00 -1.5 4 Sudoeste 9 Noroeste 0 933.5 -1 84
2018-02-18 05:00:00 -0.3 4 Sudoeste 14 Norte 0 933.7 -0.9 81
2018-02-18 04:00:00 0.6 3 Norte 11 Noroeste 0 934.2 -0.5 77
2018-02-18 03:00:00 0.1 4 Norte 11 Norte 0 934.5 -0.3 80
2018-02-18 02:00:00 -0.8 2 Este 8 Este 0 934.6 -0.1 83
2018-02-18 01:00:00 -0.4 0 Calma 8 Noroeste 0 934.7 0.4 80
2018-02-18 00:00:00 1.7 3 Norte 11 Nordeste 0 934.8 0.9 76
2018-02-17 23:00:00 2.1 3 Noroeste 9 Este 0 934.7 1.2 76
2018-02-17 22:00:00 2.9 5 Norte 10 Noroeste 0 934.3 1.4 73
2018-02-17 21:00:00 3.9 3 Sudoeste 19 Norte 0 933.9 1.4 68
2018-02-17 20:00:00 5.2 9 Norte 30 Nordeste 0 933.5 1.5 62
2018-02-17 19:00:00 6.5 10 Norte 33 Norte 0 932.9 0.8 61
2018-02-17 18:00:00 7.9 16 Norte 39 Norte 0 932.5 0.4 59
2018-02-17 17:00:00 9.4 13 Norte 36 Norte 0 932 -0.4 53
2018-02-17 16:00:00 9.7 18 Norte 38 Norte 0 932.1 -0.8 53
2018-02-17 15:00:00 10.3 14 Norte 31 Norte 0 932.1 -0.7 55
2018-02-17 14:00:00 9.9 13 Nordeste 27 Norte 0 932.4 -0.1 57
2018-02-17 13:00:00 8.7 9 Nordeste 27 Norte 0 932.9 0.9 63
2018-02-17 12:00:00 7.9 12 Norte 24 Noroeste 0 932.8 1.1 69
2018-02-17 11:00:00 7 7 Norte 18 Noroeste 0 932.5 1.3 74
2018-02-17 10:00:00 6.4 6 Norte 15 Norte 0 932 0.9 79
2018-02-17 09:00:00 6.5 2 Oeste 13 Oeste 0 931.7 0.6 85
2018-02-17 08:00:00 6.3 5 Sudoeste 14 Oeste 0 931.2 0.2 85
2018-02-17 07:00:00 6.3 4 Oeste 10 Oeste 0 931.1 0 84
2018-02-17 06:00:00 7 4 Sudoeste 13 Sudoeste 0 931.1 -0.1 83
2018-02-17 05:00:00 7.8 4 Sudoeste 9 Oeste 0 931 0 83
2018-02-17 04:00:00 7.9 4 Oeste 18 Oeste 0 931.1 0.2 81
2018-02-17 03:00:00 8.2 6 Oeste 11 Oeste 0 931.2 0.4 83
2018-02-17 02:00:00 7.5 0 Calma 4 Sudoeste 0 931 0.5 86
2018-02-17 01:00:00 7.7 2 Oeste 5 Sudoeste 0 930.9 0.6 86
2018-02-17 00:00:00 7.9 3 Sudoeste 9 Oeste 0 930.8 0.7 86
2018-02-16 23:00:00 7.5 0 Calma -- -- 0 930.5 0.5 85
2018-02-16 22:00:00 7.6 0 Calma 4 Este 0 930.3 0.6 84
2018-02-16 21:00:00 7.4 2 Oeste 4 Este 0 930.1 0.4 81
2018-02-16 20:00:00 9.6 0 Calma 6 Este 0 930 0.2 76
2018-02-16 19:00:00 12.2 6 Este 12 Este 0 929.7 -0.3 69
2018-02-16 18:00:00 13.6 4 Norte 15 Norte 0 929.7 -0.7 62
2018-02-16 17:00:00 14.2 6 Noroeste 14 Oeste 0 929.8 -1.6 61
2018-02-16 16:00:00 14 9 Norte 15 Noroeste 0 930 -2.2 64
2018-02-16 15:00:00 14.9 7 Oeste 23 Norte 0 930.4 -2.3 61
2018-02-16 14:00:00 13.8 4 Sur 15 Sudoeste 0 931.4 -1.8 66
2018-02-16 13:00:00 12.9 6 Oeste 16 Sudoeste 0 932.2 -0.9 70
2018-02-16 12:00:00 11.7 3 Sur 12 Sudoeste 0 932.7 -0.2 77
2018-02-16 11:00:00 9.6 5 Sudoeste 10 Sudoeste 0 933.2 0.6 88
2018-02-16 10:00:00 8.5 0 Calma 3 Norte 0 933.1 0.5 89
2018-02-16 09:00:00 7.7 2 Nordeste 9 Oeste 0 932.9 0.2 89
2018-02-16 08:00:00 7.6 3 Sudoeste 8 Oeste 0 932.6 -0.2 88
2018-02-16 07:00:00 7.4 0 Calma 3 Norte 0 932.6 -0.7 88
2018-02-16 06:00:00 7.5 0 Calma 3 Este 0 932.7 -0.8 88
2018-02-16 05:00:00 7.6 2 Este 4 Sudeste 0 932.8 -0.8 88
2018-02-16 04:00:00 7.7 2 Nordeste 4 Este 0 933.3 -0.5 87
2018-02-16 03:00:00 7.8 0 Calma 5 Sudeste 0 933.5 -0.1 87
2018-02-16 02:00:00 8 2 Nordeste 6 Este 0 933.6 0 87
2018-02-16 01:00:00 7.9 0 Calma 5 Nordeste 0 933.8 0.4 87
2018-02-16 00:00:00 7.8 2 Nordeste 8 Sudoeste 0 933.6 0.2 86
2018-02-15 23:00:00 7.8 0 Calma 6 Norte 0 933.6 0.3 84
2018-02-15 22:00:00 8.6 2 Oeste 9 Oeste 0 933.4 0.5 82
2018-02-15 21:00:00 9.8 3 Oeste 12 Sudoeste 0 933.4 0.7 78
2018-02-15 20:00:00 10.6 4 Sudoeste 8 Sudoeste 0 933.3 0.7 76
2018-02-15 19:00:00 11.8 4 Sur 12 Sudoeste 0 932.9 0.4 73
2018-02-15 18:00:00 12.6 8 Sudoeste 20 Oeste 0 932.7 -0.1 69
2018-02-15 17:00:00 13 11 Sudoeste 23 Sudoeste 0 932.6 -0.6 68
2018-02-15 16:00:00 13.5 15 Sudoeste 30 Sudoeste 0 932.5 -0.8 66
2018-02-15 15:00:00 12.6 12 Sudoeste 21 Oeste 0 932.8 -0.7 69
2018-02-15 14:00:00 11.5 10 Oeste 29 Sudoeste 0 933.2 -0.1 75
2018-02-15 13:00:00 11.4 17 Sudoeste 28 Sudoeste 0 933.3 0.3 73
2018-02-15 12:00:00 10.4 14 Sudoeste 26 Oeste 0 933.5 0.9 77
2018-02-15 11:00:00 9.4 12 Sudoeste 26 Sudoeste 0 933.3 1.5 82
2018-02-15 10:00:00 8.6 11 Sudoeste 24 Oeste 0 933 1.4 84
2018-02-15 09:00:00 8.1 12 Sudoeste 24 Sudoeste 0 932.6 1.5 85
2018-02-15 08:00:00 7.9 10 Sudoeste 21 Sudoeste 0 931.8 0.8 85
2018-02-15 07:00:00 7.9 8 Sudoeste 17 Sudoeste 0 931.6 0.4 85
2018-02-15 06:00:00 7.9 9 Sudoeste 22 Sudoeste 0 931.1 0.4 85
2018-02-15 05:00:00 7.9 11 Sudoeste 25 Sudoeste 0 931 0.5 85
2018-02-15 04:00:00 7.9 12 Sudoeste 26 Sudoeste 0 931.2 0.8 85
2018-02-15 03:00:00 8 11 Sudoeste 28 Sudoeste 0 930.7 0.6 84
2018-02-15 02:00:00 7.9 13 Sudoeste 26 Oeste 0 930.5 0.4 83
2018-02-15 01:00:00 7.7 8 Sudoeste 23 Oeste 0 930.4 0.7 83
2018-02-15 00:00:00 7.8 6 Oeste 24 Sudoeste 0 930.1 0.8 83
2018-02-14 23:00:00 7.8 14 Sudoeste 33 Sudoeste 0 930.1 0.9 83
2018-02-14 22:00:00 7.7 17 Sudoeste 33 Sudoeste 0 929.7 1.2 83
2018-02-14 21:00:00 7.7 17 Sudoeste 31 Sudoeste 0 929.3 1.2 83
2018-02-14 20:00:00 7.7 15 Sudoeste 31 Sudoeste 0 929.2 1.6 83
2018-02-14 19:00:00 7.8 17 Sudoeste 31 Oeste 0 928.5 1.4 83
2018-02-14 18:00:00 7.7 17 Sudoeste 31 Sudoeste 0 928.1 1.1 85
2018-02-14 17:00:00 8 12 Sudoeste 37 Oeste 0 927.6 0.6 84
2018-02-14 16:00:00 8.1 13 Sudoeste 35 Oeste 0 927.1 -0.1 83
2018-02-14 15:00:00 7.7 17 Sudoeste 39 Oeste 0.8 927 -0.3 83
2018-02-14 14:00:00 7.4 16 Sudoeste 40 Sudoeste 0.6 927 0 84
2018-02-14 13:00:00 7.1 19 Sudoeste 41 Sudoeste 0.8 927.2 0.3 83
2018-02-14 12:00:00 6.9 19 Sudoeste 36 Sudoeste 0.2 927.3 1 82
2018-02-14 11:00:00 6.6 16 Sudoeste 38 Sudoeste 0 927 1.1 80
2018-02-14 10:00:00 6.1 15 Sudoeste 33 Sudoeste 0 926.9 1.2 80
2018-02-14 09:00:00 5.8 18 Sudoeste 36 Sudoeste 0 926.3 0.7 80
2018-02-14 08:00:00 5.8 15 Sudoeste 36 Oeste 0 925.9 0.6 79
2018-02-14 07:00:00 5.6 18 Sudoeste 38 Oeste 0 925.7 0.2 80
2018-02-14 06:00:00 5.8 15 Sudoeste 40 Oeste 0 925.6 0.1 80
2018-02-14 05:00:00 5.8 17 Oeste 42 Oeste 0 925.3 -0.1 81
2018-02-14 04:00:00 6 14 Oeste 40 Oeste 0 925.5 -0.1 81
2018-02-14 03:00:00 5.9 17 Oeste 37 Oeste 0 925.5 0.2 81
2018-02-14 02:00:00 6 19 Sudoeste 36 Sudoeste 0 925.4 0.2 82
2018-02-14 01:00:00 6 16 Oeste 50 Oeste 0 925.6 0.2 83
2018-02-14 00:00:00 5.9 19 Oeste 41 Oeste 0 925.3 -0.1 87
2018-02-13 23:00:00 5.4 14 Oeste 33 Oeste 0.6 925.2 0.2 89
2018-02-13 22:00:00 4.3 14 Sudoeste 27 Sudoeste 1.4 925.4 0.2 88
2018-02-13 21:00:00 4.3 10 Sudoeste 26 Oeste 2.4 925.4 0.4 87
2018-02-13 20:00:00 5 10 Oeste 28 Oeste 0.2 925 0.7 87
2018-02-13 19:00:00 4.7 11 Oeste 30 Oeste 0.6 925.2 0.8 87
2018-02-13 18:00:00 4.7 15 Oeste 36 Oeste 0.2 925 0.4 86
2018-02-13 17:00:00 4.4 15 Oeste 36 Oeste 0.2 924.3 -0.7 86
2018-02-13 16:00:00 4.1 15 Oeste 33 Oeste 0 924.4 -1.1 84
2018-02-13 15:00:00 2.8 12 Oeste 46 Sudoeste 0 924.6 -2 84
2018-02-13 14:00:00 2.4 21 Sudoeste 46 Sudoeste 0 925 -1.9 75
2018-02-13 13:00:00 1.3 23 Sudoeste 50 Sudoeste 0 925.5 -1.1 77
2018-02-13 12:00:00 0.3 18 Sudoeste 36 Sudoeste 0 926.6 -0.2 82
2018-02-13 11:00:00 0.3 15 Sudoeste 31 Sudoeste 0 926.9 0 73
2018-02-13 10:00:00 -0.3 19 Sudoeste 38 Sudoeste 0 926.6 -0.2 75
2018-02-13 09:00:00 -1.1 11 Sudoeste 21 Sudoeste 0 926.8 -0.2 79
2018-02-13 08:00:00 -2.7 3 Noroeste 15 Oeste 0 926.9 -0.2 84
2018-02-13 07:00:00 -3.3 5 Oeste 14 Sudoeste 0 926.8 -0.8 86
2018-02-13 06:00:00 -4.1 4 Noroeste 11 Noroeste 0 927 -1.2 87
2018-02-13 05:00:00 -4.8 4 Noroeste 9 Noroeste 0 927.1 -1 88
2018-02-13 04:00:00 -5.9 2 Este 5 Oeste 0 927.6 -0.9 86
2018-02-13 03:00:00 -5.6 0 Calma 5 Este 0 928.2 -0.7 86
2018-02-13 02:00:00 -5 2 Nordeste 5 Este 0 928.1 -0.9 87
2018-02-13 01:00:00 -4.8 2 Este 4 Este 0 928.5 -0.2 86
2018-02-13 00:00:00 -4.4 0 Calma 3 Nordeste 0 928.9 0.3 85
2018-02-12 23:00:00 -3.7 0 Calma 4 Sudoeste 0 929 0.2 84
2018-02-12 22:00:00 -2.9 0 Calma 4 Sudoeste 0 928.7 0 83
2018-02-12 21:00:00 -1.9 3 Sudoeste 6 Nordeste 0 928.6 0.3 81
2018-02-12 20:00:00 -0.3 3 Sur 10 Sudoeste 0 928.8 0.7 76
2018-02-12 19:00:00 1.6 4 Sudoeste 9 Oeste 0 928.7 0.7 73
2018-02-12 18:00:00 2.5 4 Oeste 27 Oeste 0 928.3 0 68
2018-02-12 17:00:00 3.6 6 Oeste 26 Norte 0 928.1 -0.5 61
2018-02-12 16:00:00 5.6 13 Noroeste 32 Noroeste 0 928 -1 50
2018-02-12 15:00:00 5.1 13 Noroeste 28 Noroeste 0 928.3 -1.2 53
2018-02-12 14:00:00 4.4 13 Noroeste 31 Noroeste 0 928.6 -0.4 52
2018-02-12 13:00:00 5.1 12 Noroeste 33 Noroeste 0 929 0.2 55
2018-02-12 12:00:00 3.9 15 Norte 32 Norte 0 929.5 0.9 59
2018-02-12 11:00:00 3.1 9 Norte 24 Norte 0 929 0.7 61
2018-02-12 10:00:00 3 5 Norte 13 Norte 0 928.8 0.7 65
2018-02-12 09:00:00 1.1 5 Sudoeste 12 Noroeste 0 928.6 0.6 75
2018-02-12 08:00:00 1.6 4 Noroeste 17 Nordeste 0 928.3 0.3 72
2018-02-12 07:00:00 2 10 Norte 22 Norte 0 928.1 0.1 70
2018-02-12 06:00:00 2.2 5 Noroeste 21 Noroeste 0 928 -0.2 73
2018-02-12 05:00:00 2.6 5 Norte 19 Noroeste 0 928 -0.2 73
2018-02-12 04:00:00 3 7 Norte 18 Noroeste 0 928 -0.1 75
2018-02-12 03:00:00 3.1 4 Noroeste 11 Noroeste 0 928.2 0.2 81
2018-02-12 02:00:00 3.5 4 Oeste 13 Noroeste 0 928.2 0.5 82
2018-02-12 01:00:00 4 5 Norte 13 Noroeste 0 928.1 1 78
2018-02-12 00:00:00 5 4 Oeste 14 Nordeste 0 928 0.8 82
2018-02-11 23:00:00 6.4 9 Noroeste 33 Oeste 0.2 927.7 0.5 85
2018-02-11 22:00:00 7 9 Oeste 30 Norte 2.6 927.1 0.2 85
2018-02-11 21:00:00 8.1 9 Oeste 24 Oeste 0 927.2 0.3 80
2018-02-11 20:00:00 8.2 10 Oeste 26 Oeste 0 927.2 -0.2 80
2018-02-11 19:00:00 8.4 9 Oeste 20 Oeste 0.2 926.9 -0.4 80
2018-02-11 18:00:00 9 8 Oeste 21 Oeste 0 926.9 -0.8 78
2018-02-11 17:00:00 9.1 6 Oeste 32 Oeste 0.8 927.4 -1.5 80
2018-02-11 16:00:00 9.2 6 Oeste 24 Sudoeste 0.2 927.3 -2.2 81
2018-02-11 15:00:00 9.7 6 Oeste 30 Oeste 0 927.7 -2.4 71
2018-02-11 14:00:00 7.9 14 Sudoeste 31 Oeste 0 928.9 -1.4 78
2018-02-11 13:00:00 7.4 15 Sudoeste 32 Sudoeste 0 929.5 -0.9 78
2018-02-11 12:00:00 6.9 15 Sudoeste 29 Oeste 0 930.1 -0.1 79
2018-02-11 11:00:00 5.6 12 Sudoeste 25 Oeste 0 930.3 0.4 83
2018-02-11 10:00:00 4.3 11 Oeste 24 Oeste 0 930.4 0.7 84
2018-02-11 09:00:00 3.8 9 Oeste 24 Oeste 0 930.2 0.4 82
2018-02-11 08:00:00 3.5 10 Oeste 24 Oeste 0 929.9 0.1 81
2018-02-11 07:00:00 3.2 8 Oeste 28 Oeste 0 929.7 -0.1 80
2018-02-11 06:00:00 3.2 6 Oeste 23 Sudoeste 0 929.8 -0.2 78
2018-02-11 05:00:00 2.9 10 Sudoeste 19 Sudoeste 0 929.8 -0.4 77
2018-02-11 04:00:00 2.5 6 Sudoeste 12 Sudoeste 0 929.8 -0.5 78
2018-02-11 03:00:00 1.6 3 Oeste 9 Oeste 0 930 -0.3 79
2018-02-11 02:00:00 1.4 0 Calma 3 Este 0 930.2 -0.3 81
2018-02-11 01:00:00 1.1 0 Calma 8 Oeste 0 930.3 -0.1 79
2018-02-11 00:00:00 1 2 Oeste 5 Oeste 0 930.3 -0.1 79
2018-02-10 23:00:00 1 3 Oeste 8 Sudoeste 0 930.5 0.1 79
2018-02-10 22:00:00 0.9 4 Sudoeste 8 Sudoeste 0 930.4 -0.1 76
2018-02-10 21:00:00 0.7 2 Sudoeste 8 Sudoeste 0 930.4 0.3 75
2018-02-10 20:00:00 1.9 0 Calma 6 Nordeste 0 930.4 0.7 71
2018-02-10 19:00:00 4.4 4 Nordeste 18 Norte 0 930.5 0.5 61
2018-02-10 18:00:00 5.8 7 Noroeste 19 Norte 0 930.1 -0.3 55
2018-02-10 17:00:00 5.9 7 Noroeste 17 Norte 0 929.7 -1.4 53
2018-02-10 16:00:00 5.6 8 Noroeste 20 Noroeste 0 930 -1.7 52
2018-02-10 15:00:00 5.3 8 Noroeste 32 Noroeste 0 930.4 -1.8 54
2018-02-10 14:00:00 4.8 14 Norte 29 Noroeste 0 931.1 -1 57
2018-02-10 13:00:00 3.6 7 Oeste 21 Oeste 0 931.7 -0.3 67
2018-02-10 12:00:00 2 11 Oeste 23 Oeste 0 932.2 0.9 73
2018-02-10 11:00:00 0.2 8 Oeste 17 Oeste 0 932.1 0.9 79
2018-02-10 10:00:00 -0.7 5 Oeste 12 Oeste 0 932 1 81
2018-02-10 09:00:00 -2.9 4 Sudoeste 12 Oeste 0 931.3 0.3 86
2018-02-10 08:00:00 -3 4 Oeste 9 Sudoeste 0 931.2 -0.1 87
2018-02-10 07:00:00 -2.6 4 Oeste 9 Oeste 0 931 -0.2 87
2018-02-10 06:00:00 -2.7 2 Oeste 8 Sudoeste 0 931 -0.4 87
2018-02-10 05:00:00 -3 4 Sudoeste 7 Sudoeste 0 931.3 -0.3 85
2018-02-10 04:00:00 -1.9 4 Sudoeste 8 Oeste 0 931.2 -0.5 85
2018-02-10 03:00:00 -1.9 2 Oeste 8 Norte 0 931.4 0.2 85
2018-02-10 02:00:00 -2.2 4 Sudoeste 9 Sudoeste 0 931.6 0.5 82
2018-02-10 01:00:00 -1 4 Sur 10 Sudoeste 0 931.7 0.9 79
2018-02-10 00:00:00 -0.6 3 Oeste 9 Sudoeste 0 931.2 0.2 81
2018-02-09 23:00:00 0.9 2 Sudeste 16 Norte 0 931.1 0.8 78
2018-02-09 22:00:00 1.8 9 Noroeste 24 Noroeste 0 930.8 1.2 76
2018-02-09 21:00:00 0.9 5 Oeste 9 Oeste 0 931 1.9 87
2018-02-09 20:00:00 0.9 5 Oeste 16 Oeste 0 930.3 2 86
2018-02-09 19:00:00 1 5 Sudoeste 10 Oeste 0 929.6 1.5 85
2018-02-09 18:00:00 2.1 3 Oeste 16 Sudoeste 0 929.1 1.2 79
2018-02-09 17:00:00 2 6 Sudoeste 20 Sudoeste 0 928.3 0.7 82
2018-02-09 16:00:00 1.8 10 Sudoeste 23 Oeste 0 928.1 -0.2 80
2018-02-09 15:00:00 1.9 10 Oeste 25 Oeste 0 927.9 -0.8 77
2018-02-09 14:00:00 1.8 10 Sudoeste 21 Sudoeste 0 927.6 -0.9 77
2018-02-09 13:00:00 0.9 12 Sudoeste 19 Sudoeste 0 928.3 -0.1 76
2018-02-09 12:00:00 -0.3 5 Sudoeste 14 Sudoeste 0 928.7 1.2 81
2018-02-09 11:00:00 -2.1 0 Calma 4 Nordeste 0 928.5 1.9 81
2018-02-09 10:00:00 -3.9 2 Sudeste 4 Sur 0 928.4 1.4 83
2018-02-09 09:00:00 -5.4 2 Este 8 Sudeste 0 927.5 0.2 83
2018-02-09 08:00:00 -6.3 3 Este 9 Este 0 926.6 -0.7 83
2018-02-09 07:00:00 -6.3 5 Sudeste 8 Este 0 927 -0.4 84
2018-02-09 06:00:00 -6.5 0 Calma 6 Este 0 927.3 -0.5 85
2018-02-09 05:00:00 -6.8 0 Calma 5 Este 0 927.3 -0.4 85
2018-02-09 04:00:00 -6.9 0 Calma 5 Este 0 927.4 -0.5 85
2018-02-09 03:00:00 -7.3 0 Calma 3 Sudoeste 0 927.8 -0.1 85
2018-02-09 02:00:00 -6.8 2 Sudeste 3 Sudeste 0 927.7 -0.5 85
2018-02-09 01:00:00 -6.5 0 Calma 2 Norte 0 927.9 -0.6 84
2018-02-09 00:00:00 -5.7 0 Calma 4 Sudoeste 0 927.9 -0.6 83
2018-02-08 23:00:00 -5 0 Calma 4 Sudoeste 0 928.2 -0.3 80
2018-02-08 22:00:00 -4 3 Sudoeste 6 Sudoeste 0 928.5 0.2 78
2018-02-08 21:00:00 -2.7 0 Calma 6 Sudoeste 0 928.5 0.4 74
2018-02-08 20:00:00 -0.1 0 Calma 11 Noroeste 0 928.5 0.7 68
2018-02-08 19:00:00 1.5 5 Noroeste 26 Norte 0 928.3 0.4 62
2018-02-08 18:00:00 2.1 8 Norte 21 Norte 0 928.1 0 57
2018-02-08 17:00:00 2.5 12 Norte 26 Noroeste 0 927.8 -0.8 52
2018-02-08 16:00:00 2.5 10 Noroeste 26 Noroeste 0 927.9 -1.1 55
2018-02-08 15:00:00 2.6 12 Norte 27 Norte 0 928.1 -1.3 55
2018-02-08 14:00:00 2.8 13 Norte 25 Noroeste 0 928.6 -0.8 53
2018-02-08 13:00:00 1.8 14 Norte 30 Noroeste 0 929 -0.4 59
2018-02-08 12:00:00 1.2 14 Noroeste 25 Norte 0 929.4 0.1 60
2018-02-08 11:00:00 -0.2 10 Noroeste 22 Noroeste 0 929.4 0.4 70
2018-02-08 10:00:00 -2.7 6 Oeste 19 Oeste 0 929.4 0.6 79
2018-02-08 09:00:00 -3.3 8 Oeste 14 Oeste 0 929.3 0.8 82
2018-02-08 08:00:00 -3.8 5 Oeste 9 Oeste 0 929 0.6 83
2018-02-08 07:00:00 -3.7 5 Sudoeste 11 Sudoeste 0 928.8 0.5 82
2018-02-08 06:00:00 -3 3 Oeste 9 Oeste 0 928.5 0 83
2018-02-08 05:00:00 -3.3 5 Sudoeste 7 Sudoeste 0 928.4 -0.1 84
2018-02-08 04:00:00 -2.4 4 Sudoeste 16 Noroeste 0 928.3 -0.2 83
2018-02-08 03:00:00 -3 7 Noroeste 15 Noroeste 0 928.5 0.4 85
2018-02-08 02:00:00 -4.2 4 Oeste 8 Oeste 0 928.5 0.5 86
2018-02-08 01:00:00 -4.3 3 Oeste 12 Noroeste 0 928.5 1 83
2018-02-08 00:00:00 -3.8 4 Oeste 10 Noroeste 0 928.1 1.1 81
2018-02-07 23:00:00 -2.7 5 Noroeste 14 Noroeste 0 928 1.4 79
2018-02-07 22:00:00 -1.5 10 Noroeste 23 Noroeste 0 927.5 1.2 75
2018-02-07 21:00:00 -1.3 6 Noroeste 14 Noroeste 0 927 1.1 76
2018-02-07 20:00:00 -0.8 6 Noroeste 17 Noroeste 0 926.6 1 72
2018-02-07 19:00:00 0.6 9 Norte 27 Noroeste 0 926.3 1 63
2018-02-07 18:00:00 1.9 9 Noroeste 33 Norte 0 925.9 0.6 56
2018-02-07 17:00:00 2.9 13 Norte 38 Norte 0 925.6 0.2 46
2018-02-07 16:00:00 3 17 Norte 41 Norte 0 925.3 -0.3 43
2018-02-07 15:00:00 3.5 18 Norte 39 Norte 0 925.3 -0.3 42
2018-02-07 14:00:00 3 12 Norte 32 Noroeste 0 925.4 0.4 50
2018-02-07 13:00:00 1.8 13 Norte 33 Norte 0 925.6 1.1 56
2018-02-07 12:00:00 1.3 13 Norte 31 Norte 0 925.6 1.7 63
2018-02-07 11:00:00 0.2 10 Noroeste 24 Norte 0 925 1.7 69
2018-02-07 10:00:00 0 8 Noroeste 20 Noroeste 0 924.5 1.6 76
2018-02-07 09:00:00 -1.1 5 Oeste 12 Oeste 0 923.9 1.2 82
2018-02-07 08:00:00 -1.1 4 Oeste 11 Noroeste 0 923.3 0.9 82
2018-02-07 07:00:00 -1.3 4 Oeste 11 Oeste 0 922.9 0.5 82
2018-02-07 06:00:00 -1.4 6 Oeste 11 Oeste 0 922.7 0.3 82
2018-02-07 05:00:00 -1.9 4 Oeste 12 Noroeste 0 922.4 0.1 84
2018-02-07 04:00:00 -3.1 3 Oeste 12 Noroeste 0 922.4 0 85
2018-02-07 03:00:00 -3.6 5 Oeste 11 Oeste 0 922.4 0.1 85
2018-02-07 02:00:00 -3.5 5 Oeste 10 Oeste 0 922.3 -0.1 82
2018-02-07 01:00:00 -1.8 4 Sudoeste 12 Oeste 0 922.4 0.1 81
2018-02-07 00:00:00 -2.3 6 Oeste 12 Oeste 0 922.3 0.4 81
2018-02-06 23:00:00 -2.5 5 Sudoeste 8 Sudoeste 0 922.4 0.6 81
2018-02-06 22:00:00 -1.4 4 Oeste 9 Oeste 0 922.3 1.1 74
2018-02-06 21:00:00 -1.2 3 Oeste 9 Noroeste 0 921.9 1.1 73
2018-02-06 20:00:00 -0.2 6 Noroeste 20 Norte 0 921.8 1.2 65
2018-02-06 19:00:00 1.2 9 Norte 25 Norte 0 921.2 1 57
2018-02-06 18:00:00 1.8 14 Norte 30 Noroeste 0 920.8 0.5 55
2018-02-06 17:00:00 1.3 12 Norte 33 Noroeste 0 920.6 -0.1 59
2018-02-06 16:00:00 2.4 17 Norte 42 Nordeste 0 920.2 -1 51
2018-02-06 15:00:00 2.8 20 Norte 47 Nordeste 0 920.3 -1.2 48
2018-02-06 14:00:00 2.5 26 Norte 55 Norte 0 920.7 -0.6 46
2018-02-06 13:00:00 2.4 22 Norte 50 Nordeste 0 921.2 0.4 46
2018-02-06 12:00:00 2.2 18 Nordeste 52 Norte 0 921.5 1 42
2018-02-06 11:00:00 0.9 21 Norte 50 Norte 0 921.3 1.2 57
2018-02-06 10:00:00 0.6 18 Norte 42 Noroeste 0 920.8 0.9 55
2018-02-06 09:00:00 -1.1 15 Norte 42 Norte 0 920.5 1.1 59
2018-02-06 08:00:00 -1.3 14 Norte 33 Nordeste 0 920.1 1.1 62
2018-02-06 07:00:00 -1.1 12 Nordeste 33 Nordeste 0 919.9 0.9 63
2018-02-06 06:00:00 -0.8 11 Nordeste 53 Norte 0 919.4 0.4 67
2018-02-06 05:00:00 -0.1 20 Norte 50 Norte 0 919 -0.2 67
2018-02-06 04:00:00 0.3 19 Norte 51 Norte 0 919 -0.2 69
2018-02-06 03:00:00 0.7 17 Norte 53 Nordeste 0 919 -0.1 68
2018-02-06 02:00:00 0.7 17 Norte 39 Nordeste 0 919.2 0.2 71
2018-02-06 01:00:00 0.7 14 Norte 36 Norte 0 919.2 0.5 71
2018-02-06 00:00:00 0.7 13 Norte 33 Norte 0 919.1 0.8 72
2018-02-05 23:00:00 1 12 Norte 29 Norte 0 919 1.3 72
2018-02-05 22:00:00 1.1 7 Nordeste 27 Norte 0 918.7 1.7 74
2018-02-05 21:00:00 1 11 Nordeste 35 Nordeste 0 918.3 2.2 72
2018-02-05 20:00:00 1.2 8 Norte 28 Nordeste 0 917.7 2 72
2018-02-05 19:00:00 1.7 12 Norte 36 Norte 0 917 1.7 68
2018-02-05 18:00:00 2.1 14 Norte 44 Nordeste 0 916.1 0.8 71
2018-02-05 17:00:00 2.8 19 Norte 51 Norte 0 915.7 0.1 64
2018-02-05 16:00:00 2.9 15 Norte 45 Norte 0 915.3 -0.5 62
2018-02-05 15:00:00 2.3 16 Norte 36 Norte 0 915.3 -0.9 68
2018-02-05 14:00:00 2.3 12 Norte 40 Noroeste 0 915.6 -0.4 72
2018-02-05 13:00:00 3.3 15 Norte 42 Norte 0 915.8 -0.2 66
2018-02-05 12:00:00 2.9 12 Norte 30 Norte 0 916.2 0.4 68
2018-02-05 11:00:00 2 11 Norte 22 Norte 0 916 0.3 69
2018-02-05 10:00:00 0.6 4 Norte 12 Nordeste 0 916 0.4 76
2018-02-05 09:00:00 -0.3 3 Norte 8 Norte 0 915.8 0.5 78
2018-02-05 08:00:00 0.5 3 Nordeste 10 Nordeste 0 915.7 0.4 77
2018-02-05 07:00:00 0.6 4 Nordeste 10 Sudeste 0 915.6 -0.2 79
2018-02-05 06:00:00 -0.3 3 Sudoeste 7 Este 0 915.3 -1.1 84
2018-02-05 05:00:00 -0.7 0 Calma 5 Oeste 0 915.3 -1.5 85
2018-02-05 04:00:00 -0.4 4 Sudoeste 8 Noroeste 0 915.8 -1.6 83
2018-02-05 03:00:00 0.5 3 Sudoeste 6 Sudoeste 0 916.4 -1.3 81
2018-02-05 02:00:00 1.1 0 Calma 9 Norte 0 916.8 -1.1 78
2018-02-05 01:00:00 1.3 4 Norte 9 Norte 0 917.4 -0.7 77
2018-02-05 00:00:00 1.5 3 Norte 12 Norte 0 917.7 -0.3 75
2018-02-04 23:00:00 1.5 4 Norte 16 Norte 0 917.9 -0.1 74
2018-02-04 22:00:00 1.8 7 Norte 19 Norte 0 918.1 0.2 72
2018-02-04 21:00:00 2.1 4 Norte 17 Norte 0 918 0.4 66
2018-02-04 20:00:00 2.3 8 Norte 25 Norte 0 918 0.3 69
2018-02-04 19:00:00 2.5 12 Norte 32 Noroeste 0 917.9 0.2 71
2018-02-04 18:00:00 2.9 12 Norte 35 Norte 0 917.6 -0.3 69
2018-02-04 17:00:00 3.6 15 Norte 38 Norte 0 917.7 -1 66
2018-02-04 16:00:00 4.5 16 Norte 31 Norte 0 917.7 -1.8 62
2018-02-04 15:00:00 4 12 Norte 37 Nordeste 0 917.9 -2 62
2018-02-04 14:00:00 3.6 17 Norte 35 Norte 0 918.7 -1.2 65
2018-02-04 13:00:00 3 12 Norte 33 Norte 0 919.5 -0.2 73
2018-02-04 12:00:00 2 14 Norte 35 Norte 0 919.9 0.4 77
2018-02-04 11:00:00 1.1 9 Norte 26 Noroeste 0 919.9 0.4 78
2018-02-04 10:00:00 0.5 8 Noroeste 24 Noroeste 0 919.7 0.3 81
2018-02-04 09:00:00 0.4 5 Norte 17 Norte 0 919.5 -0.1 83
2018-02-04 08:00:00 0.2 7 Noroeste 15 Noroeste 0 919.5 -0.1 85
2018-02-04 07:00:00 0.4 5 Noroeste 15 Norte 0 919.4 -0.3 85
2018-02-04 06:00:00 0.1 3 Sudoeste 6 Sudoeste 1 919.6 -0.4 87
2018-02-04 05:00:00 0.2 2 Oeste 4 Sudoeste 1.4 919.6 -0.7 86
2018-02-04 04:00:00 0.6 2 Sudoeste 4 Sudoeste 1 919.7 -1 85
2018-02-04 03:00:00 1 4 Nordeste 18 Nordeste 0.6 920 -1.1 85
2018-02-04 02:00:00 3 8 Noroeste 17 Noroeste 0.2 920.3 -1.2 80
2018-02-04 01:00:00 3.7 7 Oeste 25 Oeste 0 920.7 -1 83
2018-02-04 00:00:00 4.2 10 Oeste 28 Oeste 0.2 921.1 -0.9 84
2018-02-03 23:00:00 4.7 13 Oeste 29 Oeste 0 921.5 -1 80
2018-02-03 22:00:00 5 12 Oeste 27 Oeste 0 921.7 -0.7 78
2018-02-03 21:00:00 5 12 Oeste 32 Oeste 0 922 -0.8 77
2018-02-03 20:00:00 4.9 13 Oeste 32 Oeste 0 922.5 -0.8 75
2018-02-03 19:00:00 5 15 Oeste 33 Oeste 0 922.4 -1.4 71
2018-02-03 18:00:00 5.6 15 Sudoeste 34 Oeste 0 922.8 -1.5 65
2018-02-03 17:00:00 5.8 17 Sudoeste 37 Oeste 0 923.3 -1.7 63
2018-02-03 16:00:00 6.4 20 Oeste 41 Oeste 0 923.8 -3 53
2018-02-03 15:00:00 7.2 20 Sudoeste 45 Oeste 0 924.3 -3.3 46
2018-02-03 14:00:00 6 18 Oeste 37 Oeste 0 925 -2.3 48
2018-02-03 13:00:00 3.4 16 Sudoeste 32 Oeste 0 926.8 -0.4 58
2018-02-03 12:00:00 2.3 12 Sudoeste 33 Oeste 0 927.6 0.3 63
2018-02-03 11:00:00 0.8 13 Sudoeste 24 Sudoeste 0 927.3 -0.2 67
2018-02-03 10:00:00 -0.8 14 Sudoeste 24 Sudoeste 0 927.2 0.3 73
2018-02-03 09:00:00 -1.6 7 Oeste 18 Sudoeste 0 927.3 0.6 77
2018-02-03 08:00:00 -2.1 9 Oeste 24 Sudoeste 0 927.5 1.1 78
2018-02-03 07:00:00 -2.3 9 Sudoeste 21 Sudoeste 0 926.9 0.4 79
2018-02-03 06:00:00 -3.4 4 Oeste 12 Oeste 0 926.7 -0.2 81
2018-02-03 05:00:00 -2.8 6 Oeste 15 Oeste 0 926.4 -0.6 80
2018-02-03 04:00:00 -2 5 Oeste 14 Oeste 0 926.5 -0.6 79
2018-02-03 03:00:00 -2.1 5 Oeste 11 Oeste 0 926.9 0.1 83
2018-02-03 02:00:00 -2.6 6 Oeste 12 Oeste 0 927 0.6 83
2018-02-03 01:00:00 -1.7 8 Oeste 15 Oeste 0 927.1 1.2 82
2018-02-03 00:00:00 -2.1 9 Oeste 14 Oeste 0 926.8 1.2 79
2018-02-02 23:00:00 -0.9 4 Oeste 19 Noroeste 0 926.4 0.9 74
2018-02-02 22:00:00 -0.8 4 Oeste 17 Norte 0 925.9 1 75
2018-02-02 21:00:00 0.5 10 Norte 30 Noroeste 0 925.6 1.6 71
2018-02-02 20:00:00 0.4 8 Noroeste 21 Noroeste 0 925.5 1.9 69
2018-02-02 19:00:00 1.6 8 Noroeste 30 Norte 0 924.9 1.7 64
2018-02-02 18:00:00 2.9 13 Noroeste 33 Noroeste 0 924 0.9 61
2018-02-02 17:00:00 3.2 15 Noroeste 35 Noroeste 0 923.6 0.2 57
2018-02-02 16:00:00 2.7 18 Norte 37 Norte 0 923.2 -0.3 55
2018-02-02 15:00:00 3 15 Noroeste 39 Noroeste 0 923.1 -0.2 59
2018-02-02 14:00:00 2.3 15 Norte 31 Noroeste 0 923.4 0.6 66
2018-02-02 13:00:00 1.7 13 Norte 31 Noroeste 0 923.5 1.2 69
2018-02-02 12:00:00 1.3 15 Norte 33 Noroeste 0 923.3 1.6 67
2018-02-02 11:00:00 0.8 9 Noroeste 28 Noroeste 0 922.8 1.8 72
2018-02-02 10:00:00 0 10 Noroeste 23 Norte 0 922.3 2.2 78
2018-02-02 09:00:00 -2.4 4 Oeste 19 Noroeste 0 921.7 1.9 83
2018-02-02 08:00:00 -2.3 5 Oeste 17 Oeste 0 921 1.4 82
2018-02-02 07:00:00 -1 5 Noroeste 19 Noroeste 0 920.1 0 82
2018-02-02 06:00:00 -1.4 5 Oeste 16 Oeste 0 919.8 -0.3 86
2018-02-02 05:00:00 -1.5 4 Oeste 15 Oeste 0 919.6 -0.2 85
2018-02-02 04:00:00 -1.5 4 Sudoeste 14 Oeste 0 920.1 0.2 85
2018-02-02 03:00:00 -1.4 8 Oeste 16 Oeste 0 920.1 -0.1 86
2018-02-02 02:00:00 -2.3 7 Oeste 12 Oeste 0 919.8 -0.5 88
2018-02-02 01:00:00 -3.3 3 Sudoeste 10 Sudoeste 0 919.9 0 86
2018-02-02 00:00:00 -2.4 5 Sudoeste 12 Oeste 0 920.2 0.2 87
2018-02-01 23:00:00 -3.1 5 Oeste 11 Oeste 0 920.3 0.6 88
2018-02-01 22:00:00 -3.2 3 Sudoeste 7 Sudoeste 0 919.9 0.6 86
2018-02-01 21:00:00 -2.6 4 Sudoeste 7 Sudoeste 0 920 0.8 85
2018-02-01 20:00:00 -1.5 0 Calma 6 Sudoeste 0 919.7 0.5 84
2018-02-01 19:00:00 0.3 2 Sudoeste 9 Noroeste 0 919.3 1.3 83
2018-02-01 18:00:00 0.9 4 Nordeste 40 Norte 0 919.2 0.3 82
2018-02-01 17:00:00 1.4 18 Norte 46 Nordeste 0 919.2 -1.1 77
2018-02-01 16:00:00 7 9 Noroeste 18 Norte 0 918 -3.5 53
2018-02-01 15:00:00 6.9 9 Oeste 31 Oeste 0 918.9 -3.2 56
2018-02-01 14:00:00 6.7 10 Oeste 18 Oeste 0 920.3 -2.1 62
2018-02-01 13:00:00 6.3 5 Oeste 15 Oeste 0 921.5 -1.2 64
2018-02-01 12:00:00 5.7 6 Oeste 18 Oeste 0 922.1 -0.7 66
2018-02-01 11:00:00 3 7 Oeste 14 Oeste 0 922.4 -0.8 76
2018-02-01 10:00:00 0.5 0 Calma 5 Nordeste 0 922.7 -0.9 83
2018-02-01 09:00:00 -0.3 2 Este 11 Sudoeste 0 922.8 -0.7 84
2018-02-01 08:00:00 -0.7 5 Oeste 11 Sudoeste 0 923.2 -0.6 86
2018-02-01 07:00:00 -1.9 2 Este 5 Nordeste 0 923.6 -1.2 86
2018-02-01 06:00:00 -2.3 0 Calma 6 Sudoeste 0 923.5 -1.8 85
2018-02-01 05:00:00 -1.6 0 Calma 5 Nordeste 0 923.8 -2 83
2018-02-01 04:00:00 -0.5 3 Este 10 Sudeste 0 924.8 -1.5 82
2018-02-01 03:00:00 -1.4 3 Sudeste 6 Nordeste 0 925.3 -1.3 84
2018-02-01 02:00:00 -1.2 2 Sudeste 8 Sudeste 0 925.8 -1.5 83
2018-02-01 01:00:00 -1.7 2 Este 5 Este 0 926.3 -1.3 84
2018-02-01 00:00:00 -1.6 3 Este 11 Sudeste 0 926.6 -1.2 83
2018-01-31 23:00:00 -1.9 3 Sudeste 5 Este 0 927.3 -0.7 81
2018-01-31 22:00:00 -1 0 Calma 5 Este 0 927.6 -0.8 80
2018-01-31 21:00:00 0.6 4 Este 6 Este 0 927.8 -0.6 72
2018-01-31 20:00:00 3 0 Calma 4 Noroeste 0 928 -0.8 65
2018-01-31 19:00:00 6.8 0 Calma 7 Oeste 0 928.4 -0.9 55
2018-01-31 18:00:00 11.3 4 Oeste 18 Sudoeste 0 928.4 -1.9 37
2018-01-31 17:00:00 12.2 6 Sudoeste 17 Sudoeste 0 928.8 -2.7 33
2018-01-31 16:00:00 11.6 5 Sudoeste 16 Noroeste 0 929.3 -3.3 38
2018-01-31 15:00:00 11.2 5 Oeste 16 Sudoeste 0 930.3 -2.7 38
2018-01-31 14:00:00 9.7 6 Oeste 14 Oeste 0 931.5 -2.1 45
2018-01-31 13:00:00 6.8 4 Noroeste 12 Noroeste 0 932.6 -1.1 57
2018-01-31 12:00:00 3.4 5 Sudeste 13 Sudeste 0 933 -0.5 66
2018-01-31 11:00:00 0.4 3 Sudeste 12 Sudeste 0 933.6 0.1 75
2018-01-31 10:00:00 -1 5 Sudeste 10 Sudeste 0 933.7 0.5 80
2018-01-31 09:00:00 -5.3 3 Sudeste 8 Sudeste 0 933.5 0.3 87
2018-01-31 08:00:00 -5.5 0 Calma 6 Este 0 933.5 0.2 86
2018-01-31 07:00:00 -4.9 4 Este 9 Este 0 933.2 -0.2 87
2018-01-31 06:00:00 -5.2 0 Calma 3 Norte 0 933.2 -0.6 86
2018-01-31 05:00:00 -4.8 0 Calma 4 Sudoeste 0 933.3 -0.9 86
2018-01-31 04:00:00 -4.1 0 Calma 5 Este 0 933.4 -1.2 86
2018-01-31 03:00:00 -3.6 0 Calma 4 Este 0 933.8 -1 85
2018-01-31 02:00:00 -2.9 0 Calma 6 Sudeste 0 934.2 -0.7 83
2018-01-31 01:00:00 -1.8 6 Sudeste 9 Sudeste 0 934.6 -0.3 82
2018-01-31 00:00:00 -1.6 4 Este 8 Sudeste 0 934.8 0.1 82
2018-01-30 23:00:00 -1.3 6 Sudeste 12 Sudeste 0 934.9 0.5 82
2018-01-30 22:00:00 -0.3 3 Este 9 Este 0 934.9 0.8 80
2018-01-30 21:00:00 1 4 Nordeste 8 Nordeste 0 934.7 0.8 73
2018-01-30 20:00:00 3.5 3 Sudeste 6 Sudoeste 0 934.4 0.4 63
2018-01-30 19:00:00 7 3 Sur 6 Sudoeste 0 934.1 -0.3 51
2018-01-30 18:00:00 11.5 4 Oeste 9 Oeste 0 933.9 -0.9 39
2018-01-30 17:00:00 11.9 5 Norte 10 Norte 0 934 -1.8 29
2018-01-30 16:00:00 11.9 3 Sudoeste 10 Norte 0 934.4 -2.4 33
2018-01-30 15:00:00 11.2 3 Sudeste 12 Este 0 934.8 -2.8 40
2018-01-30 14:00:00 10 6 Sudeste 19 Este 0 935.8 -1.9 48
2018-01-30 13:00:00 7.8 10 Sudeste 25 Sudeste 0 936.8 -1.1 55
2018-01-30 12:00:00 5.5 9 Este 18 Este 0 937.6 -0.4 64
2018-01-30 11:00:00 2.2 8 Este 16 Este 0 937.7 -0.2 73
2018-01-30 10:00:00 0.5 3 Este 11 Este 0 937.9 0.2 80
2018-01-30 09:00:00 -3 7 Este 13 Sudeste 0 938 0.1 86
2018-01-30 08:00:00 -3.2 2 Este 14 Sudeste 0 937.9 -0.3 85
2018-01-30 07:00:00 -2.9 8 Este 14 Este 0 937.7 -0.9 87
2018-01-30 06:00:00 -3.5 3 Este 6 Este 0 937.9 -1 88
2018-01-30 05:00:00 -3.9 2 Nordeste 4 Sudoeste 0 938.2 -0.9 87
2018-01-30 04:00:00 -3.5 0 Calma 7 Sudoeste 0 938.6 -0.7 87
2018-01-30 03:00:00 -3 0 Calma 5 Este 0 938.9 -0.5 86
2018-01-30 02:00:00 -2.4 0 Calma 3 Este 0 939.1 -0.4 85
2018-01-30 01:00:00 -1.4 0 Calma 8 Este 0 939.3 0 83
2018-01-30 00:00:00 0.1 6 Sudeste 12 Sudeste 0 939.4 0.2 82
2018-01-29 23:00:00 0.8 6 Este 12 Sudeste 0 939.5 0.5 79
2018-01-29 22:00:00 1.1 8 Sudeste 12 Sudeste 0 939.3 0.4 81
2018-01-29 21:00:00 1.8 0 Calma 6 Este 0 939.2 0.2 78
2018-01-29 20:00:00 3.8 0 Calma 2 Norte 0 939 -0.2 72
2018-01-29 19:00:00 8 0 Calma 9 Norte 0 938.9 -0.6 61
2018-01-29 18:00:00 11.7 3 Nordeste 9 Este 0 939 -1.1 47
2018-01-29 17:00:00 12.3 6 Este 14 Nordeste 0 939.2 -1.9 43
2018-01-29 16:00:00 11.9 4 Este 11 Nordeste 0 939.5 -2.7 41
2018-01-29 15:00:00 11.3 3 Norte 16 Nordeste 0 940.1 -2.9 50
2018-01-29 14:00:00 10.2 3 Sudeste 10 Sudeste 0 941.1 -2 53
2018-01-29 13:00:00 7.3 2 Sudeste 10 Sudeste 0 942.2 -0.9 66
2018-01-29 12:00:00 4.9 7 Este 13 Sudeste 0 943 -0.1 72
2018-01-29 11:00:00 2.2 6 Este 15 Este 0 943.1 0.2 79
2018-01-29 10:00:00 0.8 3 Sudeste 8 Este 0 943.1 0.2 84
2018-01-29 09:00:00 -2.1 3 Sudeste 10 Sudeste 0 943.1 -0.1 88
2018-01-29 08:00:00 -1.8 5 Sudeste 13 Sudeste 0 942.9 -0.6 87
2018-01-29 07:00:00 -1.4 6 Este 14 Sudeste 0 942.9 -1 88
2018-01-29 06:00:00 -1 6 Este 12 Este 0 943.2 -0.9 88
2018-01-29 05:00:00 -2.2 2 Sur 8 Sudeste 0 943.5 -0.9 87
2018-01-29 04:00:00 -1.3 3 Sur 9 Este 0 943.9 -0.6 87
2018-01-29 03:00:00 -0.4 5 Este 10 Este 0 944.1 -0.5 87
2018-01-29 02:00:00 -0.7 4 Sudeste 9 Sudeste 0 944.4 0.1 86
2018-01-29 01:00:00 0.1 8 Sudoeste 10 Sudoeste 0 944.5 0.5 85
2018-01-29 00:00:00 0.9 4 Este 11 Este 0 944.6 0.6 84
2018-01-28 23:00:00 1.7 4 Sudoeste 11 Este 0 944.3 0.7 78
2018-01-28 22:00:00 4.3 5 Nordeste 17 Este 0 944 0.8 74
2018-01-28 21:00:00 5.6 9 Este 22 Este 0 944 1.4 71
2018-01-28 20:00:00 7.1 9 Este 20 Este 0 943.6 1.3 65
2018-01-28 19:00:00 7.7 8 Este 25 Este 0 943.2 0.9 63
2018-01-28 18:00:00 9.9 12 Este 35 Este 0 942.6 0 55
2018-01-28 17:00:00 10.8 14 Este 30 Sudeste 0 942.3 -0.7 52
2018-01-28 16:00:00 11.4 15 Este 34 Sudeste 0 942.3 -1.7 48
2018-01-28 15:00:00 10.7 7 Este 21 Este 0 942.6 -1.8 48
2018-01-28 14:00:00 9.4 10 Nordeste 15 Nordeste 0 943 -1.2 50
2018-01-28 13:00:00 6.5 6 Norte 12 Norte 0 944 0.5 56
2018-01-28 12:00:00 2.2 4 Norte 9 Norte 0 944.4 1.1 70
2018-01-28 11:00:00 -0.6 0 Calma 6 Sudeste 0 944.2 1.6 78
2018-01-28 10:00:00 -2.1 3 Este 7 Nordeste 0 943.5 1.2 83
2018-01-28 09:00:00 -5.5 0 Calma 5 Sudeste 0 943.3 1.3 87
2018-01-28 08:00:00 -5.5 2 Norte 5 Norte 0 942.6 0.9 87
2018-01-28 07:00:00 -5.5 0 Calma 4 Noroeste 0 942.3 0.6 86
2018-01-28 06:00:00 -5.1 2 Este 5 Sudeste 0 942 0.8 87
2018-01-28 05:00:00 -4.7 3 Este 5 Sudeste 0 941.7 0.2 86
2018-01-28 04:00:00 -4.7 0 Calma 10 Sudeste 0 941.7 0.4 86
2018-01-28 03:00:00 -4.2 3 Este 5 Sudeste 0 941.2 -0.1 86
2018-01-28 02:00:00 -3.7 0 Calma 5 Sudoeste 0 941.5 0.8 85
2018-01-28 01:00:00 -3.2 0 Calma 6 Sudoeste 0 941.3 0.8 83
2018-01-28 00:00:00 -2.4 0 Calma 10 Sudoeste 0 941.3 1.1 82
2018-01-27 23:00:00 -1.3 3 Sudoeste 7 Sur 0 940.7 0.9 78
2018-01-27 22:00:00 0.9 3 Sudoeste 17 Norte 0 940.5 1.6 71
2018-01-27 21:00:00 1.9 6 Norte 14 Nordeste 0 940.2 1.8 67
2018-01-27 20:00:00 2.8 4 Este 31 Norte 0 939.8 1.8 62
2018-01-27 19:00:00 3.6 6 Norte 28 Nordeste 0 938.9 1.7 57
2018-01-27 18:00:00 5 11 Norte 35 Norte 0 938.4 1.1 51
2018-01-27 17:00:00 5.9 17 Norte 45 Norte 0 938 0.1 50
2018-01-27 16:00:00 6.4 22 Norte 47 Nordeste 0 937.2 -1.1 50
2018-01-27 15:00:00 5.9 22 Norte 46 Norte 0 937.3 -1.2 62
2018-01-27 14:00:00 6.2 17 Norte 42 Norte 0 937.9 0.1 60
2018-01-27 13:00:00 5.8 21 Norte 41 Norte 0 938.3 0.4 59
2018-01-27 12:00:00 5.6 22 Norte 43 Noroeste 0 938.5 0.7 58
2018-01-27 11:00:00 4 20 Norte 42 Norte 0 937.8 0.3 68
2018-01-27 10:00:00 2.8 15 Noroeste 38 Noroeste 0 937.9 0.9 73
2018-01-27 09:00:00 0 6 Oeste 12 Oeste 0 937.8 1.1 84
2018-01-27 08:00:00 0.7 5 Noroeste 24 Noroeste 0 937.5 0.9 80
2018-01-27 07:00:00 0.7 6 Noroeste 18 Norte 0 937 0.6 80
2018-01-27 06:00:00 0.5 8 Oeste 19 Oeste 0 936.7 0.5 81
2018-01-27 05:00:00 0.6 6 Sudoeste 19 Oeste 0 936.6 0.2 84
2018-01-27 04:00:00 0.9 6 Oeste 29 Noroeste 0 936.4 -0.2 84
2018-01-27 03:00:00 0.5 6 Oeste 21 Noroeste 0 936.2 0.2 84
2018-01-27 02:00:00 0.7 6 Oeste 12 Oeste 0 936.4 0.7 82
2018-01-27 01:00:00 1.1 6 Sudoeste 18 Sudoeste 0 936.6 1.2 82
2018-01-27 00:00:00 0.4 9 Sudoeste 17 Sudoeste 0 936 1.1 84
2018-01-26 23:00:00 0.8 3 Sur 20 Noroeste 0 935.7 1.6 80
2018-01-26 22:00:00 1 5 Oeste 18 Noroeste 0 935.4 1.9 81
2018-01-26 21:00:00 1.6 4 Noroeste 32 Noroeste 0 934.9 1.7 77
2018-01-26 20:00:00 2.2 12 Noroeste 36 Noroeste 0 934.1 1.4 74
2018-01-26 19:00:00 3.1 16 Norte 41 Noroeste 0 933.5 1 71
2018-01-26 18:00:00 4.2 13 Norte 30 Norte 0 933.2 1.2 65
2018-01-26 17:00:00 3.9 10 Noroeste 26 Norte 0.2 932.7 0.6 78
2018-01-26 16:00:00 4 14 Noroeste 27 Noroeste 0.6 932.5 -0.1 79
2018-01-26 15:00:00 4.3 9 Noroeste 28 Noroeste 0.4 932 -0.6 73
2018-01-26 14:00:00 4.7 9 Noroeste 29 Noroeste 0 932.1 0.1 72
2018-01-26 13:00:00 3.9 10 Oeste 26 Oeste 0 932.6 1.5 75
2018-01-26 12:00:00 3.3 9 Oeste 22 Oeste 0 932.6 2.4 73
2018-01-26 11:00:00 1.8 9 Oeste 23 Oeste 0 932 2.1 78
2018-01-26 10:00:00 0.7 8 Oeste 20 Oeste 0 931.1 1.8 82
2018-01-26 09:00:00 -0.3 9 Oeste 20 Oeste 0 930.2 1.5 85
2018-01-26 08:00:00 -0.3 7 Oeste 16 Oeste 0 929.9 1.2 86
2018-01-26 07:00:00 -0.7 5 Oeste 10 Oeste 0 929.3 0.8 88
2018-01-26 06:00:00 -0.5 4 Oeste 12 Oeste 0 928.7 0.2 88
2018-01-26 05:00:00 0.5 6 Oeste 19 Oeste 0 928.7 0.5 87
2018-01-26 04:00:00 1.1 5 Oeste 17 Oeste 0 928.5 0.5 86
2018-01-26 03:00:00 1.4 6 Oeste 14 Oeste 0 928.5 1 85
2018-01-26 02:00:00 1.5 5 Oeste 10 Oeste 0 928.2 1.1 84
2018-01-26 01:00:00 2.3 3 Oeste 25 Nordeste 0 928 1.6 80
2018-01-26 00:00:00 2.5 7 Norte 26 Norte 0 927.5 1.7 79
2018-01-25 23:00:00 2.2 7 Norte 41 Norte 0 927.1 1.6 83
2018-01-25 22:00:00 2.6 10 Noroeste 31 Norte 0 926.4 1.2 80
2018-01-25 21:00:00 3 14 Norte 35 Norte 0 925.8 1.1 78
2018-01-25 20:00:00 3.1 11 Norte 31 Norte 0.2 925.5 0.9 80
2018-01-25 19:00:00 4.9 6 Oeste 13 Oeste 0.2 925.2 0.6 86
2018-01-25 18:00:00 5.3 4 Oeste 18 Oeste 0 924.7 -0.2 85
2018-01-25 17:00:00 5.6 8 Sudoeste 19 Oeste 1 924.6 -1 86
2018-01-25 16:00:00 5.6 6 Oeste 26 Oeste 0.2 924.6 -2.5 85
2018-01-25 15:00:00 5.4 4 Noroeste 10 Sur 0.2 924.9 -2.7 85
2018-01-25 14:00:00 5.1 5 Sur 19 Sur 0.4 925.6 -1.7 87
2018-01-25 13:00:00 4.3 11 Sudoeste 29 Sudoeste 3.4 927.1 -0.7 88
2018-01-25 12:00:00 3.7 6 Sudoeste 16 Oeste 1.2 927.6 -1.1 90
2018-01-25 11:00:00 2.3 5 Este 14 Sudeste 0 927.3 -0.8 89
2018-01-25 10:00:00 1.1 7 Sudeste 14 Sudeste 0 927.8 -0.2 89
2018-01-25 09:00:00 -0.4 3 Oeste 8 Noroeste 0 928.7 0.1 88
2018-01-25 08:00:00 -0.3 2 Sudeste 9 Este 0 928.1 -1.5 88
2018-01-25 07:00:00 0 7 Sudeste 11 Este 0 928 -2.6 88
2018-01-25 06:00:00 0.1 7 Este 15 Este 0 928.6 -2.7 88
2018-01-25 05:00:00 0.1 5 Este 12 Este 0 929.6 -2.4 88
2018-01-25 04:00:00 -0.1 5 Este 12 Sudeste 0 930.6 -2.1 89
2018-01-25 03:00:00 0.1 5 Este 11 Sudeste 0 931.3 -1.8 88
2018-01-25 02:00:00 0.5 5 Este 11 Sudeste 0 932 -1.1 88
2018-01-25 01:00:00 0.1 0 Calma 4 Sudeste 0 932.7 -0.5 88
2018-01-25 00:00:00 0.5 0 Calma 4 Norte 0 933.1 -0.1 87
2018-01-24 23:00:00 0.9 2 Este 4 Nordeste 0 933.1 -0.2 87
2018-01-24 22:00:00 1.3 0 Calma 6 Sudoeste 0 933.2 0 86
2018-01-24 21:00:00 1.9 0 Calma 5 Este 0 933.2 0 85
2018-01-24 20:00:00 2.7 3 Este 5 Sudeste 0 933.3 0.3 83
2018-01-24 19:00:00 4.2 0 Calma 6 Noroeste 0 933.2 -0.3 77
2018-01-24 18:00:00 7 3 Noroeste 9 Noroeste 0 933.2 -0.7 73
2018-01-24 17:00:00 8.1 4 Sudoeste 13 Noroeste 0 933 -1.8 68
2018-01-24 16:00:00 6.5 5 Noroeste 12 Oeste 0 933.5 -2.2 72
2018-01-24 15:00:00 5.5 6 Sudoeste 13 Sudoeste 0 933.9 -2.2 74
2018-01-24 14:00:00 4.7 7 Sudoeste 12 Sudoeste 0 934.8 -1.2 81
2018-01-24 13:00:00 2 2 Norte 8 Sudeste 0 935.7 -0.1 89
2018-01-24 12:00:00 0.7 0 Calma 10 Este 0 936.1 0.6 90
2018-01-24 11:00:00 -0.3 5 Sudeste 11 Este 0 936 0.7 90
2018-01-24 10:00:00 -0.3 5 Este 10 Este 0 935.8 0.5 90
2018-01-24 09:00:00 -0.7 5 Este 15 Este 0 935.5 0.2 90
2018-01-24 08:00:00 0.3 4 Sudeste 10 Sudeste 0 935.3 -0.1 90
2018-01-24 07:00:00 0.4 2 Sur 10 Este 0 935.3 -0.4 90
2018-01-24 06:00:00 0.2 4 Este 11 Este 0 935.3 -0.8 90
2018-01-24 05:00:00 0.5 5 Este 16 Sudeste 0 935.4 -1.1 90
2018-01-24 04:00:00 1.6 8 Este 16 Sudeste 0 935.7 -1.4 89
2018-01-24 03:00:00 2.5 9 Sudeste 19 Sudeste 0 936.1 -1.3 89
2018-01-24 02:00:00 3.6 5 Sudeste 13 Sudeste 0 936.5 -1 89
2018-01-24 01:00:00 3.9 3 Sudeste 6 Este 0 937.1 -0.4 89
2018-01-24 00:00:00 4 3 Norte 10 Noroeste 0 937.4 -0.1 89
2018-01-23 23:00:00 4.4 5 Norte 10 Norte 0 937.5 -0.1 89
2018-01-23 22:00:00 4.8 4 Norte 12 Norte 0 937.5 0 89
2018-01-23 21:00:00 5.7 2 Este 8 Este 0 937.5 0 88
2018-01-23 20:00:00 6 2 Norte 8 Noroeste 0 937.6 0.3 87
2018-01-23 19:00:00 6.3 3 Noroeste 9 Sudoeste 0 937.5 0.3 86
2018-01-23 18:00:00 6.4 4 Sudoeste 11 Sudoeste 0 937.5 0.2 85
2018-01-23 17:00:00 6.4 4 Sudoeste 9 Noroeste 0 937.3 -0.6 84
2018-01-23 16:00:00 5.8 3 Norte 12 Norte 0 937.2 -1.4 85
2018-01-23 15:00:00 5.5 4 Noroeste 12 Norte 0 937.3 -1.6 85
2018-01-23 14:00:00 5 5 Norte 12 Noroeste 0 937.9 -0.7 87
2018-01-23 13:00:00 4.8 0 Calma 9 Noroeste 0 938.6 0.2 87
2018-01-23 12:00:00 4.7 3 Norte 10 Sudeste 0 938.9 0.7 89
2018-01-23 11:00:00 4.7 4 Nordeste 8 Este 0 938.6 1 89
2018-01-23 10:00:00 4.3 5 Sudeste 10 Sudeste 0 938.4 1.1 90
2018-01-23 09:00:00 3.9 3 Este 9 Este 0 938.2 0.8 90
2018-01-23 08:00:00 3.8 3 Este 6 Nordeste 0 937.6 -0.2 89
2018-01-23 07:00:00 3.3 0 Calma 4 Norte 0 937.3 -0.7 89
2018-01-23 06:00:00 3.1 2 Nordeste 6 Este 0 937.4 -0.3 89
2018-01-23 05:00:00 2.8 3 Nordeste 7 Sudeste 0 937.8 -0.2 88
2018-01-23 04:00:00 2.3 3 Sudeste 7 Sudeste 0 938 -0.4 87
2018-01-23 03:00:00 1.7 3 Nordeste 7 Sur 0 937.7 -0.8 89
2018-01-23 02:00:00 -0.5 0 Calma 5 Este 0 938 -0.4 88
2018-01-23 01:00:00 -0.7 0 Calma 6 Este 0 938.4 0 86
2018-01-23 00:00:00 0.1 0 Calma 7 Este 0 938.5 0.2 86
2018-01-22 23:00:00 0.5 0 Calma 6 Sudoeste 0 938.4 0.3 84
2018-01-22 22:00:00 2 0 Calma 7 Sudoeste 0 938.4 0.6 82
2018-01-22 21:00:00 3.6 0 Calma 5 Sudoeste 0 938.3 0.9 80
2018-01-22 20:00:00 5 0 Calma 9 Noroeste 0 938.1 0.6 76
2018-01-22 19:00:00 7.1 2 Noroeste 10 Noroeste 0 937.8 0.5 71
2018-01-22 18:00:00 8 2 Sudoeste 14 Noroeste 0 937.4 0 68
2018-01-22 17:00:00 8.4 6 Noroeste 16 Noroeste 0 937.5 -0.1 67
2018-01-22 16:00:00 8.9 6 Oeste 14 Oeste 0 937.3 -1.2 67
2018-01-22 15:00:00 8.8 6 Noroeste 20 Noroeste 0 937.4 -1.4 67
2018-01-22 14:00:00 8.5 8 Sudoeste 19 Oeste 0 937.6 -1 69
2018-01-22 13:00:00 8.3 5 Oeste 20 Oeste 0 938.5 0.1 72
2018-01-22 12:00:00 7.7 8 Sudoeste 19 Sudoeste 0 938.8 0.6 73
2018-01-22 11:00:00 7.4 11 Sudoeste 21 Sudoeste 0 938.6 0.8 78
2018-01-22 10:00:00 6.8 8 Sudoeste 12 Sudoeste 0 938.4 0.8 82
2018-01-22 09:00:00 6.6 4 Oeste 13 Sudoeste 0 938.2 0.6 83
2018-01-22 08:00:00 6.5 8 Sudoeste 15 Sudoeste 0 937.8 0 83
2018-01-22 07:00:00 6.5 10 Sudoeste 18 Sudoeste 0 937.6 -0.5 82
2018-01-22 06:00:00 6.2 8 Sudoeste 21 Sudoeste 0 937.6 -0.7 82
2018-01-22 05:00:00 6.3 9 Sudoeste 15 Sudoeste 0 937.8 -0.6 82
2018-01-22 04:00:00 6.3 9 Sudoeste 18 Sudoeste 0 938.1 -0.8 82
2018-01-22 03:00:00 6.5 10 Sudoeste 21 Sudoeste 0 938.3 -0.7 81
2018-01-22 02:00:00 7 8 Sudoeste 20 Sudoeste 0 938.4 -0.4 80
2018-01-22 01:00:00 6.9 6 Sudoeste 12 Sudoeste 0 938.9 0.1 81
2018-01-22 00:00:00 6.7 4 Oeste 16 Sudoeste 0 939 0.1 81